sensor_id;sensor_type;location;lat;lon;timestamp;pressure;altitude;pressure_sealevel;temperature;humidity
6395;BME280;3230;42.588;23.358;2024-02-15T00:01:51;91283.94;;;1.34;90.67
6395;BME280;3230;42.588;23.358;2024-02-15T00:04:16;91282.34;;;1.33;90.76
6395;BME280;3230;42.588;23.358;2024-02-15T00:06:43;91297.38;;;1.42;90.32
6395;BME280;3230;42.588;23.358;2024-02-15T00:09:08;91298.75;;;1.45;90.29
6395;BME280;3230;42.588;23.358;2024-02-15T00:11:33;91297.19;;;1.44;90.26
6395;BME280;3230;42.588;23.358;2024-02-15T00:13:59;91293.22;;;1.41;90.62
6395;BME280;3230;42.588;23.358;2024-02-15T00:16:25;91286.13;;;1.37;91.06
6395;BME280;3230;42.588;23.358;2024-02-15T00:18:53;91291.50;;;1.35;91.22
6395;BME280;3230;42.588;23.358;2024-02-15T00:21:20;91301.75;;;1.42;91.33
6395;BME280;3230;42.588;23.358;2024-02-15T00:23:48;91320.47;;;1.37;90.85
6395;BME280;3230;42.588;23.358;2024-02-15T00:26:14;91297.59;;;1.41;91.05
6395;BME280;3230;42.588;23.358;2024-02-15T00:28:41;91303.75;;;1.40;91.33
6395;BME280;3230;42.588;23.358;2024-02-15T00:31:07;91306.50;;;1.45;91.12
6395;BME280;3230;42.588;23.358;2024-02-15T00:33:33;91302.91;;;1.46;91.19
6395;BME280;3230;42.588;23.358;2024-02-15T00:35:58;91310.28;;;1.42;91.02
6395;BME280;3230;42.588;23.358;2024-02-15T00:38:24;91308.28;;;1.44;90.86
6395;BME280;3230;42.588;23.358;2024-02-15T00:40:49;91307.56;;;1.37;91.02
6395;BME280;3230;42.588;23.358;2024-02-15T00:43:15;91310.50;;;1.41;90.88
6395;BME280;3230;42.588;23.358;2024-02-15T00:45:40;91317.88;;;1.37;91.24
6395;BME280;3230;42.588;23.358;2024-02-15T00:48:06;91316.88;;;1.38;91.51
6395;BME280;3230;42.588;23.358;2024-02-15T00:50:32;91314.38;;;1.32;91.03
6395;BME280;3230;42.588;23.358;2024-02-15T00:52:57;91287.06;;;1.17;91.39
6395;BME280;3230;42.588;23.358;2024-02-15T00:55:23;91309.19;;;1.32;91.16
6395;BME280;3230;42.588;23.358;2024-02-15T00:57:48;91310.94;;;1.38;91.58
6395;BME280;3230;42.588;23.358;2024-02-15T01:00:14;91294.13;;;1.28;91.32
6395;BME280;3230;42.588;23.358;2024-02-15T01:02:40;91317.09;;;1.37;91.24
6395;BME280;3230;42.588;23.358;2024-02-15T01:05:05;91307.63;;;1.31;91.40
6395;BME280;3230;42.588;23.358;2024-02-15T01:07:31;91317.19;;;1.23;91.56
6395;BME280;3230;42.588;23.358;2024-02-15T01:09:56;91300.72;;;1.24;91.68
6395;BME280;3230;42.588;23.358;2024-02-15T01:12:22;91314.19;;;1.26;91.80
6395;BME280;3230;42.588;23.358;2024-02-15T01:14:47;91311.88;;;1.18;91.58
6395;BME280;3230;42.588;23.358;2024-02-15T01:17:13;91301.56;;;1.18;91.76
6395;BME280;3230;42.588;23.358;2024-02-15T01:19:38;91305.31;;;1.16;92.10
6395;BME280;3230;42.588;23.358;2024-02-15T01:22:04;91302.13;;;1.20;92.38
6395;BME280;3230;42.588;23.358;2024-02-15T01:24:31;91302.75;;;1.16;92.83
6395;BME280;3230;42.588;23.358;2024-02-15T01:26:57;91299.22;;;1.10;92.27
6395;BME280;3230;42.588;23.358;2024-02-15T01:29:23;91300.44;;;1.07;92.99
6395;BME280;3230;42.588;23.358;2024-02-15T01:31:49;91295.59;;;1.18;92.74
6395;BME280;3230;42.588;23.358;2024-02-15T01:34:15;91290.50;;;1.04;92.70
6395;BME280;3230;42.588;23.358;2024-02-15T01:36:40;91302.19;;;1.14;92.67
6395;BME280;3230;42.588;23.358;2024-02-15T01:39:05;91292.50;;;1.02;93.23
6395;BME280;3230;42.588;23.358;2024-02-15T01:41:31;91301.47;;;1.00;92.96
6395;BME280;3230;42.588;23.358;2024-02-15T01:43:57;91310.09;;;1.12;92.72
6395;BME280;3230;42.588;23.358;2024-02-15T01:46:23;91308.22;;;1.01;92.71
6395;BME280;3230;42.588;23.358;2024-02-15T01:48:48;91318.88;;;1.11;92.90
6395;BME280;3230;42.588;23.358;2024-02-15T01:51:15;91311.38;;;1.03;92.82
6395;BME280;3230;42.588;23.358;2024-02-15T01:53:42;91305.63;;;1.01;93.40
6395;BME280;3230;42.588;23.358;2024-02-15T01:56:07;91304.78;;;1.07;93.45
6395;BME280;3230;42.588;23.358;2024-02-15T01:58:33;91307.75;;;1.10;92.97
6395;BME280;3230;42.588;23.358;2024-02-15T02:01:00;91306.91;;;1.17;92.49
6395;BME280;3230;42.588;23.358;2024-02-15T02:03:26;91319.63;;;1.18;92.61
6395;BME280;3230;42.588;23.358;2024-02-15T02:05:52;91309.91;;;1.14;92.57
6395;BME280;3230;42.588;23.358;2024-02-15T02:08:18;91310.44;;;1.22;92.65
6395;BME280;3230;42.588;23.358;2024-02-15T02:10:43;91298.38;;;1.16;92.48
6395;BME280;3230;42.588;23.358;2024-02-15T02:13:11;91308.97;;;1.08;92.81
6395;BME280;3230;42.588;23.358;2024-02-15T02:15:36;91309.38;;;1.05;92.53
6395;BME280;3230;42.588;23.358;2024-02-15T02:18:03;91304.78;;;1.07;92.72
6395;BME280;3230;42.588;23.358;2024-02-15T02:20:31;91316.69;;;1.08;92.55
6395;BME280;3230;42.588;23.358;2024-02-15T02:23:16;91313.97;;;1.03;92.79
6395;BME280;3230;42.588;23.358;2024-02-15T02:25:44;91317.16;;;0.98;92.69
6395;BME280;3230;42.588;23.358;2024-02-15T02:28:10;91312.84;;;0.92;92.83
6395;BME280;3230;42.588;23.358;2024-02-15T02:30:36;91316.94;;;1.00;93.24
6395;BME280;3230;42.588;23.358;2024-02-15T02:33:01;91305.50;;;0.89;93.17
6395;BME280;3230;42.588;23.358;2024-02-15T02:35:27;91320.88;;;1.09;92.87
6395;BME280;3230;42.588;23.358;2024-02-15T02:37:56;91319.19;;;0.89;93.63
6395;BME280;3230;42.588;23.358;2024-02-15T02:40:22;91327.84;;;1.02;93.22
6395;BME280;3230;42.588;23.358;2024-02-15T02:42:52;91325.81;;;1.10;92.69
6395;BME280;3230;42.588;23.358;2024-02-15T02:45:18;91330.19;;;1.10;92.73
6395;BME280;3230;42.588;23.358;2024-02-15T02:47:46;91324.97;;;1.17;93.04
6395;BME280;3230;42.588;23.358;2024-02-15T02:50:13;91323.38;;;1.16;92.27
6395;BME280;3230;42.588;23.358;2024-02-15T02:52:39;91325.28;;;1.02;93.19
6395;BME280;3230;42.588;23.358;2024-02-15T02:55:05;91333.19;;;1.07;92.21
6395;BME280;3230;42.588;23.358;2024-02-15T02:57:34;91321.91;;;1.01;92.13
6395;BME280;3230;42.588;23.358;2024-02-15T03:00:06;91322.00;;;1.13;92.17
6395;BME280;3230;42.588;23.358;2024-02-15T03:02:38;91335.75;;;1.07;92.21
6395;BME280;3230;42.588;23.358;2024-02-15T03:05:05;91317.16;;;0.98;92.34
6395;BME280;3230;42.588;23.358;2024-02-15T03:07:34;91338.78;;;1.04;92.56
6395;BME280;3230;42.588;23.358;2024-02-15T03:10:01;91328.25;;;0.99;92.74
6395;BME280;3230;42.588;23.358;2024-02-15T03:12:26;91333.19;;;1.07;92.33
6395;BME280;3230;42.588;23.358;2024-02-15T03:14:52;91328.53;;;0.90;92.48
6395;BME280;3230;42.588;23.358;2024-02-15T03:17:20;91338.41;;;0.93;92.27
6395;BME280;3230;42.588;23.358;2024-02-15T03:19:45;91339.75;;;1.03;92.42
6395;BME280;3230;42.588;23.358;2024-02-15T03:22:14;91341.16;;;0.99;92.79
6395;BME280;3230;42.588;23.358;2024-02-15T03:24:39;91339.22;;;0.94;92.63
6395;BME280;3230;42.588;23.358;2024-02-15T03:27:05;91334.09;;;0.87;92.59
6395;BME280;3230;42.588;23.358;2024-02-15T03:29:30;91339.00;;;0.95;92.62
6395;BME280;3230;42.588;23.358;2024-02-15T03:31:56;91337.84;;;0.91;92.44
6395;BME280;3230;42.588;23.358;2024-02-15T03:34:21;91330.75;;;0.80;92.75
6395;BME280;3230;42.588;23.358;2024-02-15T03:36:48;91333.50;;;0.85;93.06
6395;BME280;3230;42.588;23.358;2024-02-15T03:39:18;91332.19;;;0.76;92.98
6395;BME280;3230;42.588;23.358;2024-02-15T03:41:44;91333.69;;;0.90;93.10
6395;BME280;3230;42.588;23.358;2024-02-15T03:44:12;91336.72;;;0.81;92.88
6395;BME280;3230;42.588;23.358;2024-02-15T03:46:37;91331.00;;;0.72;93.02
6395;BME280;3230;42.588;23.358;2024-02-15T03:49:02;91341.28;;;0.78;93.27
6395;BME280;3230;42.588;23.358;2024-02-15T03:51:28;91325.81;;;0.78;93.09
6395;BME280;3230;42.588;23.358;2024-02-15T03:53:54;91317.97;;;0.60;93.67
6395;BME280;3230;42.588;23.358;2024-02-15T03:56:19;91327.25;;;0.68;93.44
6395;BME280;3230;42.588;23.358;2024-02-15T03:58:47;91337.34;;;0.69;94.04
6395;BME280;3230;42.588;23.358;2024-02-15T04:01:15;91329.66;;;0.62;94.42
6395;BME280;3230;42.588;23.358;2024-02-15T04:03:41;91330.06;;;0.59;94.51
6395;BME280;3230;42.588;23.358;2024-02-15T04:06:06;91325.31;;;0.56;94.68
6395;BME280;3230;42.588;23.358;2024-02-15T04:08:32;91324.50;;;0.62;94.80
6395;BME280;3230;42.588;23.358;2024-02-15T04:10:58;91320.34;;;0.61;94.60
6395;BME280;3230;42.588;23.358;2024-02-15T04:13:24;91328.66;;;0.63;94.54
6395;BME280;3230;42.588;23.358;2024-02-15T04:15:49;91320.34;;;0.55;94.78
6395;BME280;3230;42.588;23.358;2024-02-15T04:18:17;91325.31;;;0.56;94.70
6395;BME280;3230;42.588;23.358;2024-02-15T04:20:43;91323.69;;;0.62;94.68
6395;BME280;3230;42.588;23.358;2024-02-15T04:23:11;91331.06;;;0.58;94.70
6395;BME280;3230;42.588;23.358;2024-02-15T04:25:36;91329.13;;;0.54;94.43
6395;BME280;3230;42.588;23.358;2024-02-15T04:28:02;91323.00;;;0.41;94.73
6395;BME280;3230;42.588;23.358;2024-02-15T04:30:31;91327.91;;;0.50;94.64
6395;BME280;3230;42.588;23.358;2024-02-15T04:32:57;91334.44;;;0.52;94.76
6395;BME280;3230;42.588;23.358;2024-02-15T04:35:23;91330.94;;;0.40;94.96
6395;BME280;3230;42.588;23.358;2024-02-15T04:37:49;91333.06;;;0.50;94.92
6395;BME280;3230;42.588;23.358;2024-02-15T04:40:16;91333.72;;;0.38;94.88
6395;BME280;3230;42.588;23.358;2024-02-15T04:42:43;91324.78;;;0.41;94.65
6395;BME280;3230;42.588;23.358;2024-02-15T04:45:10;91336.88;;;0.47;94.92
6395;BME280;3230;42.588;23.358;2024-02-15T04:47:38;91335.88;;;0.41;94.39
6395;BME280;3230;42.588;23.358;2024-02-15T04:50:06;91338.88;;;0.38;95.04
6395;BME280;3230;42.588;23.358;2024-02-15T04:52:32;91343.22;;;0.44;94.72
6395;BME280;3230;42.588;23.358;2024-02-15T04:54:57;91339.47;;;0.40;94.76
6395;BME280;3230;42.588;23.358;2024-02-15T04:57:26;91349.19;;;0.38;94.89
6395;BME280;3230;42.588;23.358;2024-02-15T04:59:54;91348.75;;;0.48;94.17
6395;BME280;3230;42.588;23.358;2024-02-15T05:02:19;91351.13;;;0.50;94.17
6395;BME280;3230;42.588;23.358;2024-02-15T05:04:45;91352.94;;;0.49;93.99
6395;BME280;3230;42.588;23.358;2024-02-15T05:07:11;91361.19;;;0.64;93.90
6395;BME280;3230;42.588;23.358;2024-02-15T05:09:36;91369.94;;;0.63;93.84
6395;BME280;3230;42.588;23.358;2024-02-15T05:12:02;91367.59;;;0.48;94.00
6395;BME280;3230;42.588;23.358;2024-02-15T05:14:28;91367.03;;;0.40;94.14
6395;BME280;3230;42.588;23.358;2024-02-15T05:16:54;91367.41;;;0.50;93.86
6395;BME280;3230;42.588;23.358;2024-02-15T05:19:19;91373.94;;;0.53;94.15
6395;BME280;3230;42.588;23.358;2024-02-15T05:21:45;91370.59;;;0.39;93.76
6395;BME280;3230;42.588;23.358;2024-02-15T05:24:15;91377.75;;;0.37;94.39
6395;BME280;3230;42.588;23.358;2024-02-15T05:26:45;91374.56;;;0.41;93.79
6395;BME280;3230;42.588;23.358;2024-02-15T05:29:14;91371.59;;;0.38;94.30
6395;BME280;3230;42.588;23.358;2024-02-15T05:31:39;91389.84;;;0.36;94.45
6395;BME280;3230;42.588;23.358;2024-02-15T05:34:10;91386.66;;;0.34;93.96
6395;BME280;3230;42.588;23.358;2024-02-15T05:36:37;91389.06;;;0.36;93.80
6395;BME280;3230;42.588;23.358;2024-02-15T05:39:03;91387.47;;;0.35;94.00
6395;BME280;3230;42.588;23.358;2024-02-15T05:41:30;91397.38;;;0.38;93.58
6395;BME280;3230;42.588;23.358;2024-02-15T05:44:03;91399.38;;;0.36;94.04
6395;BME280;3230;42.588;23.358;2024-02-15T05:46:31;91400.19;;;0.29;94.09
6395;BME280;3230;42.588;23.358;2024-02-15T05:48:57;91388.25;;;0.42;93.94
6395;BME280;3230;42.588;23.358;2024-02-15T05:51:22;91388.63;;;0.45;93.12
6395;BME280;3230;42.588;23.358;2024-02-15T05:53:48;91386.84;;;0.46;93.14
6395;BME280;3230;42.588;23.358;2024-02-15T05:56:14;91391.00;;;0.47;92.87
6395;BME280;3230;42.588;23.358;2024-02-15T05:58:40;91376.34;;;0.41;92.87
6395;BME280;3230;42.588;23.358;2024-02-15T06:01:06;91385.69;;;0.42;92.91
6395;BME280;3230;42.588;23.358;2024-02-15T06:03:38;91395.94;;;0.48;92.70
6395;BME280;3230;42.588;23.358;2024-02-15T06:06:05;91403.66;;;0.62;92.79
6395;BME280;3230;42.588;23.358;2024-02-15T06:08:34;91402.81;;;0.68;92.74
6395;BME280;3230;42.588;23.358;2024-02-15T06:11:00;91410.44;;;0.56;92.47
6395;BME280;3230;42.588;23.358;2024-02-15T06:13:26;91412.00;;;0.57;92.12
6395;BME280;3230;42.588;23.358;2024-02-15T06:15:53;91424.44;;;0.74;91.57
6395;BME280;3230;42.588;23.358;2024-02-15T06:18:25;91424.28;;;0.69;91.50
6395;BME280;3230;42.588;23.358;2024-02-15T06:20:53;91434.56;;;0.75;91.08
6395;BME280;3230;42.588;23.358;2024-02-15T06:23:18;91431.97;;;0.82;91.17
6395;BME280;3230;42.588;23.358;2024-02-15T06:25:47;91439.69;;;0.82;90.94
6395;BME280;3230;42.588;23.358;2024-02-15T06:28:13;91429.38;;;0.82;91.40
6395;BME280;3230;42.588;23.358;2024-02-15T06:30:45;91420.69;;;0.70;91.24
6395;BME280;3230;42.588;23.358;2024-02-15T06:33:30;91442.13;;;0.70;91.98
6395;BME280;3230;42.588;23.358;2024-02-15T06:36:14;91437.75;;;0.71;91.62
6395;BME280;3230;42.588;23.358;2024-02-15T06:38:57;91446.84;;;0.80;91.62
6395;BME280;3230;42.588;23.358;2024-02-15T06:41:41;91448.59;;;0.86;91.21
6395;BME280;3230;42.588;23.358;2024-02-15T06:44:07;91445.84;;;0.88;91.60
6395;BME280;3230;42.588;23.358;2024-02-15T06:46:33;91431.72;;;0.90;91.39
6395;BME280;3230;42.588;23.358;2024-02-15T06:48:58;91444.22;;;0.93;91.47
6395;BME280;3230;42.588;23.358;2024-02-15T06:51:23;91446.78;;;0.93;91.10
6395;BME280;3230;42.588;23.358;2024-02-15T06:53:50;91449.47;;;1.12;90.64
6395;BME280;3230;42.588;23.358;2024-02-15T06:56:16;91438.16;;;1.20;90.48
6395;BME280;3230;42.588;23.358;2024-02-15T06:58:43;91438.28;;;1.32;90.21
6395;BME280;3230;42.588;23.358;2024-02-15T07:01:08;91441.03;;;1.37;89.92
6395;BME280;3230;42.588;23.358;2024-02-15T07:03:34;91439.16;;;1.51;89.21
6395;BME280;3230;42.588;23.358;2024-02-15T07:05:59;91440.41;;;1.73;89.02
6395;BME280;3230;42.588;23.358;2024-02-15T07:08:25;91442.94;;;1.80;87.66
6395;BME280;3230;42.588;23.358;2024-02-15T07:10:50;91443.78;;;1.99;87.51
6395;BME280;3230;42.588;23.358;2024-02-15T07:13:19;91434.16;;;2.13;86.74
6395;BME280;3230;42.588;23.358;2024-02-15T07:15:45;91431.00;;;2.30;85.35
6395;BME280;3230;42.588;23.358;2024-02-15T07:18:12;91439.09;;;2.40;84.26
6395;BME280;3230;42.588;23.358;2024-02-15T07:20:37;91442.81;;;2.63;82.97
6395;BME280;3230;42.588;23.358;2024-02-15T07:23:05;91445.78;;;2.66;81.69
6395;BME280;3230;42.588;23.358;2024-02-15T07:25:30;91440.81;;;2.83;81.79
6395;BME280;3230;42.588;23.358;2024-02-15T07:27:56;91448.72;;;2.88;81.55
6395;BME280;3230;42.588;23.358;2024-02-15T07:30:22;91448.72;;;3.07;81.07
6395;BME280;3230;42.588;23.358;2024-02-15T07:32:48;91454.81;;;3.31;79.49
6395;BME280;3230;42.588;23.358;2024-02-15T07:35:14;91467.00;;;4.27;78.95
6395;BME280;3230;42.588;23.358;2024-02-15T07:37:51;91466.56;;;5.42;66.95
6395;BME280;3230;42.588;23.358;2024-02-15T07:40:18;91461.03;;;6.82;62.64
6395;BME280;3230;42.588;23.358;2024-02-15T07:42:43;91458.59;;;8.41;58.86
6395;BME280;3230;42.588;23.358;2024-02-15T07:45:09;91455.06;;;9.48;49.02
6395;BME280;3230;42.588;23.358;2024-02-15T07:47:36;91459.44;;;10.99;45.52
6395;BME280;3230;42.588;23.358;2024-02-15T07:50:02;91437.41;;;11.76;43.17
6395;BME280;3230;42.588;23.358;2024-02-15T07:52:28;91452.78;;;12.08;42.99
6395;BME280;3230;42.588;23.358;2024-02-15T07:54:54;91441.59;;;13.25;39.67
6395;BME280;3230;42.588;23.358;2024-02-15T07:57:20;91442.78;;;14.06;38.06
6395;BME280;3230;42.588;23.358;2024-02-15T07:59:45;91446.16;;;15.44;34.50
6395;BME280;3230;42.588;23.358;2024-02-15T08:02:13;91447.91;;;15.21;35.10
6395;BME280;3230;42.588;23.358;2024-02-15T08:04:42;91438.94;;;15.49;34.29
6395;BME280;3230;42.588;23.358;2024-02-15T08:07:09;91440.38;;;15.70;33.27
6395;BME280;3230;42.588;23.358;2024-02-15T08:09:37;91449.59;;;16.00;31.75
6395;BME280;3230;42.588;23.358;2024-02-15T08:12:02;91437.56;;;16.08;32.50
6395;BME280;3230;42.588;23.358;2024-02-15T08:14:28;91442.91;;;16.53;31.97
6395;BME280;3230;42.588;23.358;2024-02-15T08:16:54;91437.63;;;16.76;31.41
6395;BME280;3230;42.588;23.358;2024-02-15T08:19:21;91428.53;;;16.91;31.00
6395;BME280;3230;42.588;23.358;2024-02-15T08:21:48;91434.84;;;16.36;31.36
6395;BME280;3230;42.588;23.358;2024-02-15T08:24:18;91423.06;;;16.05;31.98
6395;BME280;3230;42.588;23.358;2024-02-15T08:26:44;91435.22;;;16.43;31.21
6395;BME280;3230;42.588;23.358;2024-02-15T08:29:11;91430.41;;;16.08;32.51
6395;BME280;3230;42.588;23.358;2024-02-15T08:31:37;91432.22;;;16.36;32.09
6395;BME280;3230;42.588;23.358;2024-02-15T08:34:02;91424.69;;;16.74;30.47
6395;BME280;3230;42.588;23.358;2024-02-15T08:36:30;91427.53;;;16.78;32.10
6395;BME280;3230;42.588;23.358;2024-02-15T08:38:56;91415.22;;;16.96;30.89
6395;BME280;3230;42.588;23.358;2024-02-15T08:41:21;91413.28;;;14.42;33.24
6395;BME280;3230;42.588;23.358;2024-02-15T08:43:52;91408.91;;;14.70;33.97
6395;BME280;3230;42.588;23.358;2024-02-15T08:46:18;91413.44;;;14.84;33.34
6395;BME280;3230;42.588;23.358;2024-02-15T08:48:44;91420.25;;;14.52;33.89
6395;BME280;3230;42.588;23.358;2024-02-15T08:51:10;91423.66;;;14.71;34.38
6395;BME280;3230;42.588;23.358;2024-02-15T08:53:35;91418.28;;;14.77;33.81
6395;BME280;3230;42.588;23.358;2024-02-15T08:56:04;91410.22;;;14.87;34.45
6395;BME280;3230;42.588;23.358;2024-02-15T08:58:30;91412.59;;;13.98;35.29
6395;BME280;3230;42.588;23.358;2024-02-15T09:00:57;91411.63;;;12.97;36.66
6395;BME280;3230;42.588;23.358;2024-02-15T09:03:22;91405.41;;;12.19;38.69
6395;BME280;3230;42.588;23.358;2024-02-15T09:05:48;91401.09;;;11.38;40.79
6395;BME280;3230;42.588;23.358;2024-02-15T09:08:13;91401.53;;;9.92;42.83
6395;BME280;3230;42.588;23.358;2024-02-15T09:10:41;91382.88;;;8.84;45.17
6395;BME280;3230;42.588;23.358;2024-02-15T09:13:08;91410.34;;;8.16;47.72
6395;BME280;3230;42.588;23.358;2024-02-15T09:15:33;91403.16;;;7.46;50.42
6395;BME280;3230;42.588;23.358;2024-02-15T09:17:59;91393.81;;;6.79;53.83
6395;BME280;3230;42.588;23.358;2024-02-15T09:20:24;91401.97;;;6.65;54.97
6395;BME280;3230;42.588;23.358;2024-02-15T09:22:54;91391.22;;;6.39;56.82
6395;BME280;3230;42.588;23.358;2024-02-15T09:25:21;91395.31;;;6.18;58.57
6395;BME280;3230;42.588;23.358;2024-02-15T09:27:50;91388.00;;;6.15;59.73
6395;BME280;3230;42.588;23.358;2024-02-15T09:30:17;91408.81;;;6.15;62.84
6395;BME280;3230;42.588;23.358;2024-02-15T09:32:43;91401.31;;;6.19;61.05
6395;BME280;3230;42.588;23.358;2024-02-15T09:35:10;91403.81;;;6.14;60.05
6395;BME280;3230;42.588;23.358;2024-02-15T09:37:46;91399.84;;;5.94;60.57
6395;BME280;3230;42.588;23.358;2024-02-15T09:40:16;91390.22;;;5.78;60.52
6395;BME280;3230;42.588;23.358;2024-02-15T09:42:43;91406.84;;;5.76;61.77
6395;BME280;3230;42.588;23.358;2024-02-15T09:45:11;91406.28;;;5.74;61.91
6395;BME280;3230;42.588;23.358;2024-02-15T09:47:40;91402.66;;;5.75;61.95
6395;BME280;3230;42.588;23.358;2024-02-15T09:50:10;91396.84;;;5.85;62.57
6395;BME280;3230;42.588;23.358;2024-02-15T09:55:10;91411.75;;;5.90;62.83
6395;BME280;3230;42.588;23.358;2024-02-15T09:57:41;91398.03;;;5.78;63.93
6395;BME280;3230;42.588;23.358;2024-02-15T10:00:07;91405.78;;;5.89;65.27
6395;BME280;3230;42.588;23.358;2024-02-15T10:02:35;91408.19;;;5.79;63.42
6395;BME280;3230;42.588;23.358;2024-02-15T10:05:03;91395.75;;;5.81;65.32
6395;BME280;3230;42.588;23.358;2024-02-15T10:07:29;91397.16;;;5.89;63.74
6395;BME280;3230;42.588;23.358;2024-02-15T10:09:54;91390.09;;;6.01;64.00
6395;BME280;3230;42.588;23.358;2024-02-15T10:12:20;91382.13;;;5.91;62.69
6395;BME280;3230;42.588;23.358;2024-02-15T10:14:49;91380.47;;;5.85;63.66
6395;BME280;3230;42.588;23.358;2024-02-15T10:17:15;91364.94;;;5.90;63.60
6395;BME280;3230;42.588;23.358;2024-02-15T10:19:42;91377.66;;;6.03;62.73
6395;BME280;3230;42.588;23.358;2024-02-15T10:22:10;91366.31;;;6.10;63.11
6395;BME280;3230;42.588;23.358;2024-02-15T10:24:37;91368.56;;;6.23;65.79
6395;BME280;3230;42.588;23.358;2024-02-15T10:27:04;91365.25;;;6.28;65.08
6395;BME280;3230;42.588;23.358;2024-02-15T10:29:33;91372.44;;;6.20;63.38
6395;BME280;3230;42.588;23.358;2024-02-15T10:32:03;91370.47;;;6.28;63.15
6395;BME280;3230;42.588;23.358;2024-02-15T10:34:32;91363.88;;;6.20;62.47
6395;BME280;3230;42.588;23.358;2024-02-15T10:37:14;91352.03;;;6.12;63.33
6395;BME280;3230;42.588;23.358;2024-02-15T10:39:44;91363.59;;;6.38;65.29
6395;BME280;3230;42.588;23.358;2024-02-15T10:42:09;91360.03;;;6.45;64.59
6395;BME280;3230;42.588;23.358;2024-02-15T10:44:38;91356.19;;;6.30;63.70
6395;BME280;3230;42.588;23.358;2024-02-15T10:47:07;91343.28;;;6.01;63.86
6395;BME280;3230;42.588;23.358;2024-02-15T10:49:34;91354.59;;;5.95;65.25
6395;BME280;3230;42.588;23.358;2024-02-15T10:52:01;91340.47;;;6.03;67.26
6395;BME280;3230;42.588;23.358;2024-02-15T10:56:59;91358.78;;;5.96;66.51
6395;BME280;3230;42.588;23.358;2024-02-15T10:59:32;91347.44;;;5.85;66.61
6395;BME280;3230;42.588;23.358;2024-02-15T11:02:11;91345.78;;;5.96;66.68
6395;BME280;3230;42.588;23.358;2024-02-15T11:04:42;91347.53;;;6.07;66.86
6395;BME280;3230;42.588;23.358;2024-02-15T11:07:10;91346.44;;;6.20;66.24
6395;BME280;3230;42.588;23.358;2024-02-15T11:09:37;91336.25;;;6.19;65.35
6395;BME280;3230;42.588;23.358;2024-02-15T11:12:03;91331.25;;;6.34;65.58
6395;BME280;3230;42.588;23.358;2024-02-15T11:14:30;91339.81;;;6.52;65.69
6395;BME280;3230;42.588;23.358;2024-02-15T11:16:59;91334.09;;;6.33;63.93
6395;BME280;3230;42.588;23.358;2024-02-15T11:22:08;91336.25;;;6.58;64.17
6395;BME280;3230;42.588;23.358;2024-02-15T11:24:37;91330.53;;;6.39;63.30
6395;BME280;3230;42.588;23.358;2024-02-15T11:27:06;91337.63;;;6.66;62.30
6395;BME280;3230;42.588;23.358;2024-02-15T11:30:00;91350.53;;;6.55;61.72
6395;BME280;3230;42.588;23.358;2024-02-15T11:32:47;91344.19;;;6.68;62.76
6395;BME280;3230;42.588;23.358;2024-02-15T11:35:19;91344.31;;;6.79;63.72
6395;BME280;3230;42.588;23.358;2024-02-15T11:40:15;91334.81;;;6.67;61.03
6395;BME280;3230;42.588;23.358;2024-02-15T11:42:42;91335.19;;;6.76;63.46
6395;BME280;3230;42.588;23.358;2024-02-15T11:45:08;91325.03;;;6.57;61.37
6395;BME280;3230;42.588;23.358;2024-02-15T11:47:37;91341.72;;;6.79;62.79
6395;BME280;3230;42.588;23.358;2024-02-15T11:50:09;91338.25;;;6.73;61.39
6395;BME280;3230;42.588;23.358;2024-02-15T11:52:46;91338.09;;;6.80;61.49
6395;BME280;3230;42.588;23.358;2024-02-15T11:55:18;91349.13;;;6.87;61.01
6395;BME280;3230;42.588;23.358;2024-02-15T11:57:54;91337.16;;;6.69;60.12
6395;BME280;3230;42.588;23.358;2024-02-15T12:00:26;91336.50;;;6.79;59.94
6395;BME280;3230;42.588;23.358;2024-02-15T12:03:10;91336.09;;;6.87;61.74
6395;BME280;3230;42.588;23.358;2024-02-15T12:05:57;91330.38;;;6.90;60.96
6395;BME280;3230;42.588;23.358;2024-02-15T12:08:45;91334.97;;;7.05;58.50
6395;BME280;3230;42.588;23.358;2024-02-15T12:11:29;91331.34;;;7.06;59.34
6395;BME280;3230;42.588;23.358;2024-02-15T12:14:15;91326.03;;;7.23;59.66
6395;BME280;3230;42.588;23.358;2024-02-15T12:17:03;91326.03;;;7.23;58.85
6395;BME280;3230;42.588;23.358;2024-02-15T12:19:48;91327.06;;;7.22;58.66
6395;BME280;3230;42.588;23.358;2024-02-15T12:22:17;91322.75;;;7.06;57.61
6395;BME280;3230;42.588;23.358;2024-02-15T12:24:52;91327.56;;;7.19;58.32
6395;BME280;3230;42.588;23.358;2024-02-15T12:27:18;91330.34;;;7.12;58.22
6395;BME280;3230;42.588;23.358;2024-02-15T12:29:45;91320.91;;;7.06;60.05
6395;BME280;3230;42.588;23.358;2024-02-15T12:32:20;91314.38;;;7.03;57.35
6395;BME280;3230;42.588;23.358;2024-02-15T12:34:46;91323.09;;;7.14;61.91
6395;BME280;3230;42.588;23.358;2024-02-15T12:37:12;91333.22;;;7.11;58.42
6395;BME280;3230;42.588;23.358;2024-02-15T12:39:38;91328.38;;;6.75;58.58
6395;BME280;3230;42.588;23.358;2024-02-15T12:42:06;91320.59;;;7.02;58.19
6395;BME280;3230;42.588;23.358;2024-02-15T12:44:32;91328.94;;;6.99;57.74
6395;BME280;3230;42.588;23.358;2024-02-15T12:46:59;91311.66;;;6.93;59.12
6395;BME280;3230;42.588;23.358;2024-02-15T12:52:38;91315.31;;;6.92;58.19
6395;BME280;3230;42.588;23.358;2024-02-15T12:55:15;91310.81;;;6.87;58.60
6395;BME280;3230;42.588;23.358;2024-02-15T12:57:43;91309.91;;;6.77;57.90
6395;BME280;3230;42.588;23.358;2024-02-15T13:00:11;91310.78;;;6.60;58.88
6395;BME280;3230;42.588;23.358;2024-02-15T13:02:50;91310.94;;;6.76;60.61
6395;BME280;3230;42.588;23.358;2024-02-15T13:05:17;91315.72;;;6.84;60.21
6395;BME280;3230;42.588;23.358;2024-02-15T13:07:47;91313.06;;;6.79;58.44
6395;BME280;3230;42.588;23.358;2024-02-15T13:10:13;91314.69;;;6.85;57.97
6395;BME280;3230;42.588;23.358;2024-02-15T13:12:43;91313.81;;;7.01;59.16
6395;BME280;3230;42.588;23.358;2024-02-15T13:15:11;91326.41;;;7.10;56.43
6395;BME280;3230;42.588;23.358;2024-02-15T13:17:40;91312.88;;;7.08;57.44
6395;BME280;3230;42.588;23.358;2024-02-15T13:20:07;91318.75;;;7.25;56.50
6395;BME280;3230;42.588;23.358;2024-02-15T13:22:37;91311.97;;;7.24;57.35
6395;BME280;3230;42.588;23.358;2024-02-15T13:25:07;91321.16;;;7.59;55.82
6395;BME280;3230;42.588;23.358;2024-02-15T13:27:36;91321.81;;;7.44;57.42
6395;BME280;3230;42.588;23.358;2024-02-15T13:30:04;91318.44;;;7.49;56.91
6395;BME280;3230;42.588;23.358;2024-02-15T13:32:37;91310.19;;;7.57;56.02
6395;BME280;3230;42.588;23.358;2024-02-15T13:35:09;91317.44;;;7.50;54.80
6395;BME280;3230;42.588;23.358;2024-02-15T13:37:47;91322.59;;;7.45;55.55